Time;durP1;ratioP1;P1;durP2;ratioP2;P2;SDS_P1;SDS_P2;PMS_P1;PMS_P2;Temp;Humidity;BMP_temperature;BMP_pressure;BME280_temperature;BME280_humidity;BME280_pressure;Samples;Min_cycle;Max_cycle;Signal;HPM_P1;HPM_P2
2024/04/10 00:01:07;;;;;;;24.75;4.63;;;;;;;;;;5425075;26;20036;-44
2024/04/10 00:03:34;;;;;;;27.58;4.63;;;;;;;;;;5438204;26;20097;-43
2024/04/10 00:06:05;;;;;;;21.35;4.82;;;;;;;;;;5449065;26;20072;-39
2024/04/10 00:08:35;;;;;;;29.00;5.10;;;;;;;;;;5433228;26;20315;-44
2024/04/10 00:11:03;;;;;;;29.05;6.25;;;;;;;;;;5425886;26;19999;-43
2024/04/10 00:13:30;;;;;;;37.63;6.75;;;;;;;;;;5430156;26;20000;-44
2024/04/10 00:16:01;;;;;;;45.95;7.30;;;;;;;;;;5433121;26;20640;-41
2024/04/10 00:18:32;;;;;;;35.65;7.53;;;;;;;;;;5448767;26;20009;-41
2024/04/10 00:20:59;;;;;;;43.30;7.60;;;;;;;;;;5448481;26;20005;-41
2024/04/10 00:23:26;;;;;;;34.17;8.43;;;;;;;;;;5430767;26;20020;-44
2024/04/10 00:25:54;;;;;;;42.10;9.75;;;;;;;;;;5421736;26;19999;-41
2024/04/10 00:28:22;;;;;;;44.67;8.68;;;;;;;;;;5438263;26;20014;-43
2024/04/10 00:30:49;;;;;;;38.65;8.50;;;;;;;;;;5429909;26;20331;-45
2024/04/10 00:33:16;;;;;;;45.28;8.48;;;;;;;;;;5441224;26;20007;-42
2024/04/10 00:35:43;;;;;;;55.58;12.30;;;;;;;;;;5448929;26;19999;-42
2024/04/10 00:38:12;;;;;;;58.78;11.68;;;;;;;;;;5449146;26;20009;-44
2024/04/10 00:40:39;;;;;;;46.63;10.85;;;;;;;;;;5435681;26;20335;-41
2024/04/10 00:43:06;;;;;;;43.85;10.68;;;;;;;;;;5437089;26;20023;-45
2024/04/10 00:45:35;;;;;;;50.53;10.85;;;;;;;;;;5416417;26;20039;-41
2024/04/10 00:48:02;;;;;;;43.58;10.70;;;;;;;;;;5430385;26;20002;-41
2024/04/10 00:50:30;;;;;;;57.55;11.18;;;;;;;;;;5434556;26;20002;-44
2024/04/10 00:52:57;;;;;;;50.90;10.13;;;;;;;;;;5429057;26;20064;-44
2024/04/10 00:55:26;;;;;;;42.35;11.20;;;;;;;;;;5422664;26;20539;-41
2024/04/10 00:57:54;;;;;;;39.65;11.23;;;;;;;;;;5431089;26;20010;-42
2024/04/10 01:00:21;;;;;;;47.10;11.85;;;;;;;;;;5444680;26;20003;-43
2024/04/10 01:02:48;;;;;;;45.03;11.45;;;;;;;;;;5427847;26;20453;-44
2024/04/10 01:05:15;;;;;;;60.08;12.38;;;;;;;;;;5449797;26;20009;-44
2024/04/10 01:07:44;;;;;;;44.20;11.05;;;;;;;;;;5449393;26;20009;-45
2024/04/10 01:10:11;;;;;;;43.17;10.98;;;;;;;;;;5433207;26;20037;-43
2024/04/10 01:12:39;;;;;;;41.00;10.32;;;;;;;;;;5426685;26;20017;-43
2024/04/10 01:15:06;;;;;;;43.63;10.45;;;;;;;;;;5441279;26;20003;-43
2024/04/10 01:17:34;;;;;;;44.75;10.45;;;;;;;;;;5438739;26;20018;-43
2024/04/10 01:20:05;;;;;;;41.08;9.95;;;;;;;;;;5451829;26;20048;-42
2024/04/10 01:22:32;;;;;;;40.28;10.48;;;;;;;;;;5450582;26;19999;-43
2024/04/10 01:25:00;;;;;;;48.20;10.90;;;;;;;;;;5450812;26;20014;-43
2024/04/10 01:27:27;;;;;;;38.45;9.95;;;;;;;;;;5449630;26;19999;-44
2024/04/10 01:29:54;;;;;;;36.78;9.80;;;;;;;;;;5452269;26;19998;-43
2024/04/10 01:32:21;;;;;;;47.50;10.35;;;;;;;;;;5451895;26;20042;-45
2024/04/10 01:34:48;;;;;;;39.78;10.20;;;;;;;;;;5423354;26;20002;-44
2024/04/10 01:37:15;;;;;;;40.45;9.38;;;;;;;;;;5433054;26;19994;-42
2024/04/10 01:39:42;;;;;;;32.33;8.88;;;;;;;;;;5428874;26;19995;-42
2024/04/10 01:42:09;;;;;;;34.08;8.88;;;;;;;;;;5439253;26;20071;-41
2024/04/10 01:44:36;;;;;;;31.85;8.50;;;;;;;;;;5437315;26;20013;-41
2024/04/10 01:47:03;;;;;;;28.25;8.27;;;;;;;;;;5428835;26;20004;-40
2024/04/10 01:49:30;;;;;;;32.58;9.23;;;;;;;;;;5438815;26;20013;-39
2024/04/10 01:51:57;;;;;;;31.98;8.63;;;;;;;;;;5440494;26;20016;-44
2024/04/10 01:54:24;;;;;;;32.13;8.25;;;;;;;;;;5430926;26;20014;-42
2024/04/10 01:56:51;;;;;;;28.88;8.70;;;;;;;;;;5416398;26;20548;-41
2024/04/10 01:59:18;;;;;;;27.10;7.90;;;;;;;;;;5427035;26;20077;-41
2024/04/10 02:01:45;;;;;;;31.55;7.28;;;;;;;;;;5439079;26;20014;-44
2024/04/10 02:04:12;;;;;;;25.42;8.20;;;;;;;;;;5429183;26;20022;-42
2024/04/10 02:06:39;;;;;;;32.10;7.50;;;;;;;;;;5444864;26;20411;-43
2024/04/10 02:09:06;;;;;;;24.77;7.38;;;;;;;;;;5427381;26;20018;-44
2024/04/10 02:11:38;;;;;;;27.92;7.47;;;;;;;;;;5433004;26;20006;-43
2024/04/10 02:14:05;;;;;;;21.63;7.15;;;;;;;;;;5434889;26;20014;-44
2024/04/10 02:16:32;;;;;;;18.92;6.07;;;;;;;;;;5430885;26;20003;-42
2024/04/10 02:18:59;;;;;;;23.35;6.70;;;;;;;;;;5430929;26;20007;-39
2024/04/10 02:21:26;;;;;;;26.30;6.28;;;;;;;;;;5434391;26;20410;-41
2024/04/10 02:23:56;;;;;;;24.15;6.85;;;;;;;;;;5432187;26;19999;-40
2024/04/10 02:26:23;;;;;;;21.42;6.00;;;;;;;;;;5431221;26;20010;-41
2024/04/10 02:28:50;;;;;;;25.58;6.25;;;;;;;;;;5433075;26;19995;-44
2024/04/10 02:31:17;;;;;;;20.60;6.00;;;;;;;;;;5429841;26;20007;-41
2024/04/10 02:33:44;;;;;;;19.58;5.72;;;;;;;;;;5430945;26;19999;-43
2024/04/10 02:36:11;;;;;;;20.27;6.40;;;;;;;;;;5434984;26;20002;-44
2024/04/10 02:38:42;;;;;;;21.48;5.97;;;;;;;;;;5432871;26;20010;-43
2024/04/10 02:41:09;;;;;;;18.67;5.50;;;;;;;;;;5428713;26;20007;-43
2024/04/10 02:43:36;;;;;;;21.58;5.57;;;;;;;;;;5433191;26;20009;-40
2024/04/10 02:46:07;;;;;;;16.65;5.45;;;;;;;;;;5433206;26;20015;-39
2024/04/10 02:48:34;;;;;;;15.50;4.72;;;;;;;;;;5414975;26;20003;-41
2024/04/10 02:51:01;;;;;;;18.95;5.45;;;;;;;;;;5431536;26;20408;-40
2024/04/10 02:53:28;;;;;;;23.33;6.53;;;;;;;;;;5430847;26;20080;-42
2024/04/10 02:55:56;;;;;;;16.35;5.05;;;;;;;;;;5446109;26;20018;-41
2024/04/10 02:58:23;;;;;;;15.35;5.15;;;;;;;;;;5451548;26;20471;-41
2024/04/10 03:00:54;;;;;;;19.13;5.13;;;;;;;;;;5450241;26;20003;-44
2024/04/10 03:03:22;;;;;;;13.48;4.72;;;;;;;;;;5447356;26;20040;-40
2024/04/10 03:05:59;;;;;;;15.52;4.40;;;;;;;;;;5451364;26;20002;-43
2024/04/10 03:08:26;;;;;;;12.70;4.50;;;;;;;;;;5449118;26;20034;-44
2024/04/10 03:10:53;;;;;;;16.75;4.63;;;;;;;;;;5451524;26;20011;-43
2024/04/10 03:13:20;;;;;;;11.13;4.10;;;;;;;;;;5448816;26;20010;-40
2024/04/10 03:15:47;;;;;;;13.15;5.35;;;;;;;;;;5450953;26;20014;-43
2024/04/10 03:18:14;;;;;;;19.20;5.43;;;;;;;;;;5450817;26;20031;-41
2024/04/10 03:20:41;;;;;;;15.65;5.63;;;;;;;;;;5450841;26;20010;-41
2024/04/10 03:23:08;;;;;;;16.17;5.68;;;;;;;;;;5448945;26;20002;-44
2024/04/10 03:25:36;;;;;;;16.17;5.07;;;;;;;;;;5450730;26;20010;-44
2024/04/10 03:28:03;;;;;;;17.20;5.05;;;;;;;;;;5449945;26;20006;-41
2024/04/10 03:30:30;;;;;;;13.98;5.03;;;;;;;;;;5450860;26;19999;-45
2024/04/10 03:32:57;;;;;;;13.77;4.85;;;;;;;;;;5451340;26;19999;-41
2024/04/10 03:35:24;;;;;;;12.30;5.00;;;;;;;;;;5448866;26;20365;-41
2024/04/10 03:37:52;;;;;;;12.70;4.68;;;;;;;;;;5461724;21;20011;-37
2024/04/10 03:40:19;;;;;;;12.00;4.35;;;;;;;;;;5423324;26;20014;-37
2024/04/10 03:42:47;;;;;;;13.38;4.75;;;;;;;;;;5450693;26;20010;-37
2024/04/10 03:45:14;;;;;;;14.10;4.22;;;;;;;;;;5430897;26;20004;-36
2024/04/10 03:47:43;;;;;;;15.18;4.53;;;;;;;;;;5414826;26;20003;-38
2024/04/10 03:50:10;;;;;;;9.73;4.10;;;;;;;;;;5414855;26;20018;-37
2024/04/10 03:52:37;;;;;;;15.45;4.20;;;;;;;;;;5414355;26;20003;-36
2024/04/10 03:55:04;;;;;;;11.30;4.35;;;;;;;;;;5412999;26;20043;-37
2024/04/10 03:57:33;;;;;;;13.00;3.92;;;;;;;;;;5413757;26;20019;-37
2024/04/10 04:00:00;;;;;;;13.15;4.35;;;;;;;;;;5414577;26;20476;-37
2024/04/10 04:02:27;;;;;;;11.13;4.05;;;;;;;;;;5413041;26;20000;-36
2024/04/10 04:04:54;;;;;;;14.20;4.22;;;;;;;;;;5414731;26;20014;-37
2024/04/10 04:07:21;;;;;;;13.35;4.07;;;;;;;;;;5411763;26;20004;-37
2024/04/10 04:09:48;;;;;;;10.95;3.95;;;;;;;;;;5414006;26;19999;-37
2024/04/10 04:12:15;;;;;;;11.90;3.78;;;;;;;;;;5414476;26;20080;-37
2024/04/10 04:14:42;;;;;;;13.40;3.70;;;;;;;;;;5418009;26;20349;-36
2024/04/10 04:17:09;;;;;;;11.50;3.97;;;;;;;;;;5416077;26;19999;-36
2024/04/10 04:19:36;;;;;;;11.23;4.18;;;;;;;;;;5417551;26;20010;-37
2024/04/10 04:22:03;;;;;;;9.32;3.47;;;;;;;;;;5417884;26;20015;-38
2024/04/10 04:24:30;;;;;;;11.35;3.55;;;;;;;;;;5417830;26;20007;-36
2024/04/10 04:26:57;;;;;;;10.65;3.60;;;;;;;;;;5415967;26;20003;-37
2024/04/10 04:29:24;;;;;;;9.43;3.30;;;;;;;;;;5417153;26;20003;-37
2024/04/10 04:31:51;;;;;;;11.05;3.50;;;;;;;;;;5417230;26;20014;-37
2024/04/10 04:34:18;;;;;;;10.00;3.65;;;;;;;;;;5417472;26;20077;-37
2024/04/10 04:36:45;;;;;;;8.98;3.30;;;;;;;;;;5417832;26;20003;-37
2024/04/10 04:39:15;;;;;;;9.07;3.20;;;;;;;;;;5414569;26;20004;-37
2024/04/10 04:41:42;;;;;;;7.20;2.80;;;;;;;;;;5417375;26;20011;-37
2024/04/10 04:44:09;;;;;;;11.43;3.30;;;;;;;;;;5417610;26;20011;-37
2024/04/10 04:46:36;;;;;;;6.93;2.85;;;;;;;;;;5417534;26;20068;-37
2024/04/10 04:49:03;;;;;;;10.23;3.67;;;;;;;;;;5415347;26;20010;-36
2024/04/10 04:51:30;;;;;;;5.32;2.30;;;;;;;;;;5417099;26;19999;-37
2024/04/10 04:53:57;;;;;;;9.55;3.30;;;;;;;;;;5417313;26;20415;-37
2024/04/10 04:56:24;;;;;;;8.93;3.03;;;;;;;;;;5417339;26;20490;-36
2024/04/10 04:58:52;;;;;;;7.68;3.30;;;;;;;;;;5415935;26;20031;-38
2024/04/10 05:01:21;;;;;;;7.13;2.95;;;;;;;;;;5416780;26;20011;-37
2024/04/10 05:06:44;;;;;;;7.65;2.78;;;;;;;;;;5383300;26;20004;-37
2024/04/10 05:09:11;;;;;;;6.55;2.72;;;;;;;;;;5416563;26;19999;-36
2024/04/10 05:11:37;;;;;;;7.22;2.58;;;;;;;;;;5415765;26;20389;-36
2024/04/10 05:14:05;;;;;;;9.75;3.17;;;;;;;;;;5417071;26;20979;-37
2024/04/10 05:16:32;;;;;;;6.07;2.55;;;;;;;;;;5417211;26;20378;-37
2024/04/10 05:19:04;;;;;;;4.30;2.30;;;;;;;;;;5417039;26;19999;-36
2024/04/10 05:21:31;;;;;;;6.90;2.55;;;;;;;;;;5415019;26;19999;-37
2024/04/10 05:23:58;;;;;;;8.07;2.83;;;;;;;;;;5416637;26;20481;-37
2024/04/10 05:26:25;;;;;;;6.57;2.60;;;;;;;;;;5417082;26;19991;-37
2024/04/10 05:28:52;;;;;;;7.95;2.65;;;;;;;;;;5416933;26;20006;-37
2024/04/10 05:31:19;;;;;;;5.57;2.53;;;;;;;;;;5414742;26;19991;-37
2024/04/10 05:33:46;;;;;;;5.47;2.33;;;;;;;;;;5416969;26;20023;-37
2024/04/10 05:36:13;;;;;;;6.95;2.50;;;;;;;;;;5416968;26;20028;-37
2024/04/10 05:38:40;;;;;;;5.65;2.20;;;;;;;;;;5416445;26;20006;-36
2024/04/10 05:41:07;;;;;;;4.78;2.22;;;;;;;;;;5416534;26;20041;-37
2024/04/10 05:43:34;;;;;;;7.65;2.72;;;;;;;;;;5414798;26;20005;-37
2024/04/10 05:46:01;;;;;;;7.30;2.53;;;;;;;;;;5416352;26;20089;-37
2024/04/10 05:48:28;;;;;;;4.18;1.85;;;;;;;;;;5416662;26;19995;-36
2024/04/10 05:51:01;;;;;;;5.45;2.30;;;;;;;;;;5416874;26;20080;-37
2024/04/10 05:53:30;;;;;;;5.38;2.50;;;;;;;;;;5414608;26;20003;-37
2024/04/10 05:55:57;;;;;;;4.20;2.17;;;;;;;;;;5416416;26;20394;-36
2024/04/10 05:58:24;;;;;;;6.05;2.40;;;;;;;;;;5416335;26;20013;-37
2024/04/10 06:00:51;;;;;;;7.93;2.35;;;;;;;;;;5413645;26;20007;-37
2024/04/10 06:03:18;;;;;;;8.13;2.20;;;;;;;;;;5413916;26;20322;-36
2024/04/10 06:05:46;;;;;;;9.43;2.42;;;;;;;;;;5416716;26;20066;-37
2024/04/10 06:08:13;;;;;;;4.95;2.10;;;;;;;;;;5415599;26;20007;-37
2024/04/10 06:10:40;;;;;;;5.47;2.05;;;;;;;;;;5416248;26;20004;-36
2024/04/10 06:13:07;;;;;;;6.75;2.00;;;;;;;;;;5415662;26;20340;-37
2024/04/10 06:15:34;;;;;;;6.47;2.60;;;;;;;;;;5412277;26;20011;-36
2024/04/10 06:18:01;;;;;;;8.80;2.40;;;;;;;;;;5416657;26;20000;-36
2024/04/10 06:20:28;;;;;;;5.60;2.10;;;;;;;;;;5416339;26;20076;-37
2024/04/10 06:22:55;;;;;;;3.65;1.83;;;;;;;;;;5416011;26;20003;-37
2024/04/10 06:25:22;;;;;;;5.25;2.10;;;;;;;;;;5414303;26;20016;-36
2024/04/10 06:27:49;;;;;;;5.78;2.10;;;;;;;;;;5415630;26;20008;-37
2024/04/10 06:30:16;;;;;;;6.03;1.98;;;;;;;;;;5415907;26;20016;-37
2024/04/10 06:32:43;;;;;;;4.50;2.00;;;;;;;;;;5416212;26;20007;-36
2024/04/10 06:35:10;;;;;;;7.00;1.75;;;;;;;;;;5413083;26;19999;-37
2024/04/10 06:37:37;;;;;;;5.20;1.95;;;;;;;;;;5415708;26;20350;-37
2024/04/10 06:40:05;;;;;;;4.00;1.70;;;;;;;;;;5415915;26;20027;-37
2024/04/10 06:42:32;;;;;;;4.57;1.67;;;;;;;;;;5415446;26;20436;-36
2024/04/10 06:44:59;;;;;;;4.90;2.15;;;;;;;;;;5416105;26;20449;-36
2024/04/10 06:47:26;;;;;;;4.60;1.98;;;;;;;;;;5413484;26;20014;-37
2024/04/10 06:49:53;;;;;;;6.85;2.13;;;;;;;;;;5415800;26;20000;-36
2024/04/10 06:52:20;;;;;;;4.32;1.77;;;;;;;;;;5415801;26;20423;-36
2024/04/10 06:54:47;;;;;;;3.55;1.45;;;;;;;;;;5416178;26;20487;-37
2024/04/10 06:57:14;;;;;;;4.43;1.63;;;;;;;;;;5413670;26;20004;-36
2024/04/10 06:59:42;;;;;;;4.10;1.42;;;;;;;;;;5415104;26;20011;-37
2024/04/10 07:02:08;;;;;;;3.97;1.75;;;;;;;;;;5415069;26;20010;-37
2024/04/10 07:04:36;;;;;;;6.90;2.20;;;;;;;;;;5415827;26;20007;-37
2024/04/10 07:07:04;;;;;;;3.90;1.70;;;;;;;;;;5413618;26;20449;-36
2024/04/10 07:09:32;;;;;;;5.18;1.52;;;;;;;;;;5415413;26;20003;-36
2024/04/10 07:11:59;;;;;;;6.47;2.00;;;;;;;;;;5414627;26;20349;-36
2024/04/10 07:14:28;;;;;;;7.35;2.08;;;;;;;;;;5415428;26;20014;-37
2024/04/10 07:16:55;;;;;;;5.18;1.90;;;;;;;;;;5415479;26;20004;-37
2024/04/10 07:19:23;;;;;;;3.85;1.52;;;;;;;;;;5412608;26;20007;-37
2024/04/10 07:21:50;;;;;;;3.45;1.45;;;;;;;;;;5414936;26;20015;-37
2024/04/10 07:24:17;;;;;;;3.08;1.42;;;;;;;;;;5415220;26;20070;-36
2024/04/10 07:26:44;;;;;;;3.58;1.55;;;;;;;;;;5415180;26;20000;-37
2024/04/10 07:29:12;;;;;;;5.88;1.60;;;;;;;;;;5412742;26;20003;-37
2024/04/10 07:31:41;;;;;;;4.07;1.70;;;;;;;;;;5414985;26;20003;-36
2024/04/10 07:34:10;;;;;;;3.47;1.60;;;;;;;;;;5413614;26;20000;-36
2024/04/10 07:36:38;;;;;;;5.53;1.52;;;;;;;;;;5415338;26;20410;-36
2024/04/10 07:39:06;;;;;;;4.10;1.45;;;;;;;;;;5412733;26;20000;-36
2024/04/10 07:41:33;;;;;;;4.07;1.58;;;;;;;;;;5415024;26;20003;-36
2024/04/10 07:44:05;;;;;;;5.05;1.52;;;;;;;;;;5427909;26;20438;-36
2024/04/10 07:46:39;;;;;;;3.17;1.42;;;;;;;;;;5420469;26;20404;-37
2024/04/10 07:49:13;;;;;;;2.97;1.55;;;;;;;;;;5418474;26;20006;-37
2024/04/10 07:51:46;;;;;;;3.88;1.40;;;;;;;;;;5416497;26;20003;-37
2024/04/10 07:54:17;;;;;;;4.88;1.50;;;;;;;;;;5418052;26;19999;-36
2024/04/10 07:56:50;;;;;;;4.07;1.75;;;;;;;;;;5418413;26;20010;-36
2024/04/10 07:59:23;;;;;;;3.47;1.30;;;;;;;;;;5417117;26;19999;-36
2024/04/10 08:01:58;;;;;;;2.78;1.25;;;;;;;;;;5410828;26;20071;-36
2024/04/10 08:04:31;;;;;;;2.88;1.30;;;;;;;;;;5418207;26;20925;-36
2024/04/10 08:07:04;;;;;;;2.42;1.30;;;;;;;;;;5418039;26;19995;-37
2024/04/10 08:09:33;;;;;;;4.93;1.55;;;;;;;;;;5422186;26;20056;-37
2024/04/10 08:12:00;;;;;;;3.47;1.52;;;;;;;;;;5431861;26;20015;-37
2024/04/10 08:14:27;;;;;;;2.97;1.30;;;;;;;;;;5418177;26;19999;-36
2024/04/10 08:16:54;;;;;;;2.72;1.40;;;;;;;;;;5418448;26;20073;-37
2024/04/10 08:19:22;;;;;;;2.47;1.10;;;;;;;;;;5417521;26;19999;-37
2024/04/10 08:21:49;;;;;;;3.05;1.20;;;;;;;;;;5415234;26;20037;-36
2024/04/10 08:24:16;;;;;;;3.75;1.30;;;;;;;;;;5418183;26;20341;-37
2024/04/10 08:26:43;;;;;;;4.18;1.48;;;;;;;;;;5417721;26;20003;-36
2024/04/10 08:29:10;;;;;;;2.00;1.20;;;;;;;;;;5417403;26;20003;-36
2024/04/10 08:31:37;;;;;;;4.30;1.65;;;;;;;;;;5417905;26;20465;-36
2024/04/10 08:34:04;;;;;;;3.13;1.35;;;;;;;;;;5414902;26;20838;-37
2024/04/10 08:36:33;;;;;;;3.10;1.33;;;;;;;;;;5417643;26;20003;-36
2024/04/10 08:39:00;;;;;;;2.22;1.17;;;;;;;;;;5417407;26;20004;-36
2024/04/10 08:41:27;;;;;;;3.10;1.65;;;;;;;;;;5417772;26;19999;-37
2024/04/10 08:43:55;;;;;;;2.08;1.00;;;;;;;;;;5415286;26;20018;-36
2024/04/10 08:46:22;;;;;;;3.25;1.40;;;;;;;;;;5416885;26;20453;-37
2024/04/10 08:48:52;;;;;;;3.00;1.40;;;;;;;;;;5416833;26;20351;-37
2024/04/10 08:51:19;;;;;;;3.95;1.55;;;;;;;;;;5415074;26;20014;-36
2024/04/10 08:53:47;;;;;;;4.25;1.27;;;;;;;;;;5413197;26;19996;-37
2024/04/10 08:56:17;;;;;;;2.00;1.08;;;;;;;;;;5414821;26;20003;-36
2024/04/10 08:58:44;;;;;;;2.50;1.23;;;;;;;;;;5413903;26;20013;-36
2024/04/10 09:01:25;;;;;;;2.28;1.10;;;;;;;;;;5412192;26;20013;-36
2024/04/10 09:03:53;;;;;;;2.58;1.27;;;;;;;;;;5414507;26;20003;-36
2024/04/10 09:06:20;;;;;;;1.88;1.00;;;;;;;;;;5412832;26;20014;-37
2024/04/10 09:09:00;;;;;;;2.58;1.27;;;;;;;;;;5414148;26;20003;-36
2024/04/10 09:11:28;;;;;;;3.10;1.30;;;;;;;;;;5414445;26;20358;-36
2024/04/10 09:14:08;;;;;;;3.58;1.25;;;;;;;;;;5414418;26;20014;-37
2024/04/10 09:16:35;;;;;;;3.40;1.23;;;;;;;;;;5412501;26;20483;-37
2024/04/10 09:19:10;;;;;;;2.42;1.10;;;;;;;;;;5413030;26;20631;-37
2024/04/10 09:21:38;;;;;;;2.28;1.20;;;;;;;;;;5411549;26;20026;-36
2024/04/10 09:24:05;;;;;;;2.58;1.20;;;;;;;;;;5410750;26;20011;-37
2024/04/10 09:26:32;;;;;;;4.07;1.40;;;;;;;;;;5409659;26;20014;-37
2024/04/10 09:29:18;;;;;;;3.28;1.20;;;;;;;;;;5411910;26;20015;-37
2024/04/10 09:31:49;;;;;;;2.25;1.00;;;;;;;;;;5410081;26;20011;-36
2024/04/10 09:34:20;;;;;;;3.13;1.38;;;;;;;;;;5411900;26;20014;-37
2024/04/10 09:36:47;;;;;;;3.85;1.10;;;;;;;;;;5408900;26;20615;-37
2024/04/10 09:39:22;;;;;;;6.72;1.20;;;;;;;;;;5400088;26;20000;-36
2024/04/10 09:41:49;;;;;;;4.50;1.45;;;;;;;;;;5410415;26;20019;-39
2024/04/10 09:44:18;;;;;;;3.08;1.23;;;;;;;;;;5406562;26;20004;-36
2024/04/10 09:46:50;;;;;;;2.90;1.10;;;;;;;;;;5411092;26;20141;-37
2024/04/10 09:49:17;;;;;;;4.07;1.43;;;;;;;;;;5413916;26;20341;-36
2024/04/10 09:51:45;;;;;;;3.67;1.10;;;;;;;;;;5412195;26;20003;-36
2024/04/10 09:54:12;;;;;;;5.65;1.40;;;;;;;;;;5413642;26;20014;-37
2024/04/10 09:56:44;;;;;;;8.38;1.65;;;;;;;;;;5413970;26;20029;-37
2024/04/10 09:59:13;;;;;;;2.70;1.23;;;;;;;;;;5412248;26;19999;-38
2024/04/10 10:01:41;;;;;;;4.82;1.38;;;;;;;;;;5413365;26;19995;-36
2024/04/10 10:04:10;;;;;;;6.57;1.23;;;;;;;;;;5413420;26;20109;-37
2024/04/10 10:06:37;;;;;;;4.55;1.40;;;;;;;;;;5413993;26;20000;-36
2024/04/10 10:09:05;;;;;;;3.47;1.30;;;;;;;;;;5410232;26;19999;-37
2024/04/10 10:11:32;;;;;;;5.32;1.50;;;;;;;;;;5413148;26;20000;-35
2024/04/10 10:14:00;;;;;;;5.40;1.40;;;;;;;;;;5413681;26;20004;-37
2024/04/10 10:16:27;;;;;;;7.57;1.73;;;;;;;;;;5412909;26;19996;-37
2024/04/10 10:18:55;;;;;;;6.65;1.60;;;;;;;;;;5411655;26;20314;-38
2024/04/10 10:21:23;;;;;;;5.05;1.63;;;;;;;;;;5414045;26;20011;-37
2024/04/10 10:24:04;;;;;;;5.45;1.55;;;;;;;;;;5413375;26;20011;-37
2024/04/10 10:26:31;;;;;;;4.18;1.20;;;;;;;;;;5413539;26;20035;-37
2024/04/10 10:29:05;;;;;;;7.10;1.45;;;;;;;;;;5412161;26;20010;-36
2024/04/10 10:31:35;;;;;;;3.15;1.27;;;;;;;;;;5407824;26;20010;-37
2024/04/10 10:34:03;;;;;;;3.55;1.02;;;;;;;;;;5412416;26;20018;-36
2024/04/10 10:36:33;;;;;;;5.75;1.70;;;;;;;;;;5408546;26;20451;-37
2024/04/10 10:39:15;;;;;;;4.53;1.40;;;;;;;;;;5410938;26;20419;-37
2024/04/10 10:41:42;;;;;;;4.45;1.30;;;;;;;;;;5408985;26;19995;-36
2024/04/10 10:44:09;;;;;;;5.93;1.50;;;;;;;;;;5408259;26;19999;-36
2024/04/10 10:46:36;;;;;;;8.68;1.70;;;;;;;;;;5412627;26;20004;-37
2024/04/10 10:49:03;;;;;;;5.40;1.58;;;;;;;;;;5412140;26;20080;-36
2024/04/10 10:51:35;;;;;;;5.13;1.25;;;;;;;;;;5410213;26;20047;-37
2024/04/10 10:54:03;;;;;;;8.65;1.65;;;;;;;;;;5407345;26;20003;-37
2024/04/10 10:56:30;;;;;;;6.43;1.20;;;;;;;;;;5412514;26;20027;-37
2024/04/10 10:59:07;;;;;;;6.30;1.63;;;;;;;;;;5411473;26;20011;-38
2024/04/10 11:01:37;;;;;;;9.40;1.38;;;;;;;;;;5410328;26;20000;-38
2024/04/10 11:04:08;;;;;;;6.18;1.30;;;;;;;;;;5412042;26;20073;-40
2024/04/10 11:06:35;;;;;;;7.47;1.27;;;;;;;;;;5411150;26;20000;-38
2024/04/10 11:09:10;;;;;;;5.18;1.20;;;;;;;;;;5411857;26;20077;-38
2024/04/10 11:11:38;;;;;;;4.97;1.42;;;;;;;;;;5408053;26;20004;-38
2024/04/10 11:14:05;;;;;;;7.50;1.67;;;;;;;;;;5409537;26;20190;-39
2024/04/10 11:16:33;;;;;;;3.72;1.50;;;;;;;;;;5411606;26;20019;-39
2024/04/10 11:19:04;;;;;;;7.38;1.55;;;;;;;;;;5412155;26;20476;-40
2024/04/10 11:21:31;;;;;;;6.78;1.48;;;;;;;;;;5411223;26;20011;-38
2024/04/10 11:23:58;;;;;;;8.45;1.77;;;;;;;;;;5408404;26;20385;-40
2024/04/10 11:26:26;;;;;;;5.20;1.35;;;;;;;;;;5410670;26;19999;-39
2024/04/10 11:28:53;;;;;;;7.60;1.40;;;;;;;;;;5410910;26;19999;-39
2024/04/10 11:33:59;;;;;;;4.82;1.55;;;;;;;;;;5519006;25;20415;-37
2024/04/10 11:36:26;;;;;;;6.70;1.40;;;;;;;;;;5500421;26;20001;-38
2024/04/10 11:38:53;;;;;;;4.97;1.55;;;;;;;;;;5468450;26;20005;-38
2024/04/10 11:41:20;;;;;;;6.43;1.70;;;;;;;;;;5500784;26;20001;-44
2024/04/10 11:43:47;;;;;;;12.30;1.75;;;;;;;;;;5478753;26;20064;-41
2024/04/10 11:46:14;;;;;;;15.20;1.63;;;;;;;;;;5468016;26;20006;-43
2024/04/10 11:48:41;;;;;;;9.57;2.05;;;;;;;;;;5481949;26;19994;-45
2024/04/10 11:51:09;;;;;;;13.57;1.70;;;;;;;;;;5506478;26;20450;-44
2024/04/10 11:53:37;;;;;;;8.15;2.00;;;;;;;;;;5473829;26;20343;-44
2024/04/10 11:56:04;;;;;;;12.48;1.40;;;;;;;;;;5474895;26;20528;-44
2024/04/10 11:58:31;;;;;;;6.60;1.33;;;;;;;;;;5506465;26;19993;-44
2024/04/10 12:00:58;;;;;;;9.27;1.92;;;;;;;;;;5506510;26;19994;-44
2024/04/10 12:03:25;;;;;;;8.32;1.50;;;;;;;;;;5473872;26;20347;-45
2024/04/10 12:05:53;;;;;;;7.25;2.28;;;;;;;;;;5506280;26;20066;-44
2024/04/10 12:08:22;;;;;;;6.10;1.85;;;;;;;;;;5506379;26;20447;-44
2024/04/10 12:10:49;;;;;;;7.75;1.98;;;;;;;;;;5506212;26;20505;-45
2024/04/10 12:13:16;;;;;;;9.13;1.75;;;;;;;;;;5506203;26;20008;-47
2024/04/10 12:15:43;;;;;;;9.45;1.70;;;;;;;;;;5506208;26;20074;-46
2024/04/10 12:18:09;;;;;;;8.50;2.00;;;;;;;;;;5506132;26;20013;-48
2024/04/10 12:20:36;;;;;;;12.32;1.60;;;;;;;;;;5506232;26;20034;-47
2024/04/10 12:23:03;;;;;;;5.10;1.67;;;;;;;;;;5506122;26;20837;-45
2024/04/10 12:25:30;;;;;;;5.65;1.70;;;;;;;;;;5505948;26;20335;-47
2024/04/10 12:27:57;;;;;;;8.57;1.80;;;;;;;;;;5505890;26;20081;-46
2024/04/10 12:30:24;;;;;;;9.90;1.80;;;;;;;;;;5506121;26;19994;-46
2024/04/10 12:32:51;;;;;;;7.85;1.67;;;;;;;;;;5485583;26;20322;-45
2024/04/10 12:38:07;;;;;;;5.70;1.48;;;;;;;;;;5469408;26;20059;-44
2024/04/10 12:40:35;;;;;;;6.18;1.67;;;;;;;;;;5469425;26;20476;-46
2024/04/10 12:43:03;;;;;;;7.97;1.80;;;;;;;;;;5467604;26;20006;-46
2024/04/10 12:45:31;;;;;;;5.80;1.70;;;;;;;;;;5421378;26;20002;-45
2024/04/10 12:47:58;;;;;;;6.47;1.85;;;;;;;;;;5453537;26;20413;-45
2024/04/10 12:50:25;;;;;;;5.28;1.67;;;;;;;;;;5453602;26;20003;-44
2024/04/10 12:52:52;;;;;;;4.82;1.73;;;;;;;;;;5453381;26;20048;-45
2024/04/10 12:55:19;;;;;;;6.18;1.77;;;;;;;;;;5453572;26;20524;-44
2024/04/10 12:57:47;;;;;;;8.43;2.30;;;;;;;;;;5453521;26;19995;-45
2024/04/10 13:00:14;;;;;;;6.55;1.80;;;;;;;;;;5453309;26;20003;-45
2024/04/10 13:02:43;;;;;;;8.00;2.28;;;;;;;;;;5453461;26;19999;-44
2024/04/10 13:05:11;;;;;;;5.60;1.90;;;;;;;;;;5453290;26;20104;-46
2024/04/10 13:07:38;;;;;;;4.00;1.80;;;;;;;;;;5453091;26;20347;-44
2024/04/10 13:10:05;;;;;;;4.43;1.60;;;;;;;;;;5421671;26;20799;-45
2024/04/10 13:12:32;;;;;;;4.45;1.83;;;;;;;;;;5453224;26;20486;-45
2024/04/10 13:15:00;;;;;;;5.60;1.60;;;;;;;;;;5453331;26;20026;-45
2024/04/10 13:17:27;;;;;;;4.22;1.60;;;;;;;;;;5453340;26;20009;-44
2024/04/10 13:19:54;;;;;;;4.10;1.85;;;;;;;;;;5453495;26;19998;-45
2024/04/10 13:22:21;;;;;;;4.82;1.55;;;;;;;;;;5453063;26;20352;-45
2024/04/10 13:24:48;;;;;;;5.55;1.85;;;;;;;;;;5453237;26;20003;-43
2024/04/10 13:27:15;;;;;;;5.47;1.83;;;;;;;;;;5453101;26;20076;-44
2024/04/10 13:29:43;;;;;;;8.40;1.70;;;;;;;;;;5453119;26;20043;-44
2024/04/10 13:32:10;;;;;;;4.93;1.70;;;;;;;;;;5452888;26;20014;-44
2024/04/10 13:34:37;;;;;;;6.93;1.80;;;;;;;;;;5452910;26;20460;-45
2024/04/10 13:37:08;;;;;;;3.67;1.67;;;;;;;;;;5452762;26;20479;-45
2024/04/10 13:39:35;;;;;;;5.68;1.90;;;;;;;;;;5452716;26;19999;-45
2024/04/10 13:42:02;;;;;;;3.88;1.52;;;;;;;;;;5452853;26;20011;-44
2024/04/10 13:44:29;;;;;;;3.70;1.52;;;;;;;;;;5452745;26;20006;-43
2024/04/10 13:46:56;;;;;;;5.03;1.67;;;;;;;;;;5452651;26;20080;-45
2024/04/10 13:49:23;;;;;;;4.80;1.52;;;;;;;;;;5453019;26;20009;-45
2024/04/10 13:51:50;;;;;;;6.25;1.52;;;;;;;;;;5452734;26;20492;-45
2024/04/10 13:54:17;;;;;;;6.60;1.77;;;;;;;;;;5452747;26;19999;-44
2024/04/10 13:56:44;;;;;;;3.42;1.60;;;;;;;;;;5452593;26;20007;-45
2024/04/10 13:59:11;;;;;;;3.67;1.40;;;;;;;;;;5421320;26;20022;-47
2024/04/10 14:01:38;;;;;;;4.32;1.58;;;;;;;;;;5452681;26;20014;-44
2024/04/10 14:04:05;;;;;;;5.50;1.48;;;;;;;;;;5452943;26;20079;-47
2024/04/10 14:06:32;;;;;;;5.20;1.48;;;;;;;;;;5452594;26;20011;-44
2024/04/10 14:08:59;;;;;;;5.47;1.52;;;;;;;;;;5452398;26;20372;-43
2024/04/10 14:11:27;;;;;;;4.25;1.55;;;;;;;;;;5452402;26;20010;-44
2024/04/10 14:13:54;;;;;;;4.32;1.40;;;;;;;;;;5452394;26;20072;-43
2024/04/10 14:16:21;;;;;;;5.05;1.70;;;;;;;;;;5452423;26;20445;-43
2024/04/10 14:18:48;;;;;;;4.82;1.48;;;;;;;;;;5452246;26;20014;-44
2024/04/10 14:21:15;;;;;;;4.07;1.50;;;;;;;;;;5420538;26;20002;-43
2024/04/10 14:23:43;;;;;;;3.47;1.40;;;;;;;;;;5452111;26;20003;-43
2024/04/10 14:26:14;;;;;;;3.30;1.40;;;;;;;;;;5452042;26;20349;-45
2024/04/10 14:28:42;;;;;;;6.15;1.80;;;;;;;;;;5452080;26;20027;-43
2024/04/10 14:31:10;;;;;;;4.40;1.42;;;;;;;;;;5452215;26;20003;-45
2024/04/10 14:33:37;;;;;;;4.18;1.50;;;;;;;;;;5452248;26;20437;-45
2024/04/10 14:36:05;;;;;;;3.53;1.45;;;;;;;;;;5452458;26;20007;-46
2024/04/10 14:38:32;;;;;;;3.85;1.35;;;;;;;;;;5452063;26;20049;-45
2024/04/10 14:41:00;;;;;;;2.47;1.13;;;;;;;;;;5452303;26;20067;-45
2024/04/10 14:43:28;;;;;;;4.93;1.50;;;;;;;;;;5452263;26;20006;-46
2024/04/10 14:45:56;;;;;;;4.85;1.40;;;;;;;;;;5452095;26;20461;-45
2024/04/10 14:48:23;;;;;;;4.10;1.40;;;;;;;;;;5451922;26;20009;-46
2024/04/10 14:51:09;;;;;;;4.03;1.42;;;;;;;;;;5452080;26;20002;-45